createdAt,value
2019-04-23T00:01:23.830Z,96877.23
2019-04-23T00:04:00.939Z,96869.50
2019-04-23T00:06:21.788Z,96875.49
2019-04-23T00:08:55.873Z,96875.78
2019-04-23T00:11:19.385Z,96872.45
2019-04-23T00:13:49.978Z,96871.13
2019-04-23T00:16:26.459Z,96870.75
2019-04-23T00:18:53.719Z,96862.13
2019-04-23T00:24:17.527Z,96866.31
2019-04-23T00:29:15.014Z,96861.47
2019-04-23T00:31:44.536Z,96862.80
2019-04-23T00:34:30.811Z,96857.59
2019-04-23T00:36:44.804Z,96864.31
2019-04-23T00:39:15.322Z,96860.60
2019-04-23T00:41:55.008Z,96857.00
2019-04-23T00:44:26.951Z,96859.00
2019-04-23T00:46:50.708Z,96854.16
2019-04-23T00:49:25.235Z,96854.92
2019-04-23T00:51:49.910Z,96857.57
2019-04-23T00:54:46.847Z,96859.13
2019-04-23T00:59:27.014Z,96859.38
2019-04-23T01:01:55.791Z,96856.72
2019-04-23T01:04:31.643Z,96852.94
2019-04-23T01:07:01.017Z,96854.92
2019-04-23T01:09:31.175Z,96849.80
2019-04-23T01:12:06.368Z,96850.55
2019-04-23T01:14:36.043Z,96848.27
2019-04-23T01:17:08.482Z,96849.19
2019-04-23T01:19:43.800Z,96853.17
2019-04-23T01:21:55.734Z,96844.06
2019-04-23T01:24:30.701Z,96847.56
2019-04-23T01:30:11.396Z,96844.02
2019-04-23T01:32:36.776Z,96845.61
2019-04-23T01:37:41.178Z,96847.02
2019-04-23T01:45:19.809Z,96841.97
2019-04-23T01:50:21.907Z,96836.73
2019-04-23T01:52:55.122Z,96827.34
2019-04-23T01:55:29.636Z,96827.78
2019-04-23T01:58:06.983Z,96828.14
2019-04-23T02:00:22.329Z,96824.60
2019-04-23T02:02:57.522Z,96818.33
2019-04-23T02:05:32.579Z,96820.66
2019-04-23T02:08:01.492Z,96818.94
2019-04-23T02:13:03.837Z,96811.09
2019-04-23T02:15:31.273Z,96824.50
2019-04-23T02:18:08.494Z,96815.61
2019-04-23T02:20:41.024Z,96818.80
2019-04-23T02:23:18.337Z,96808.44
2019-04-23T02:28:22.662Z,96803.46
2019-04-23T02:33:45.084Z,96796.08
2019-04-23T02:38:40.157Z,96797.01
2019-04-23T02:43:22.252Z,96805.89
2019-04-23T02:48:30.737Z,96794.67
2019-04-23T02:51:05.022Z,96790.13
2019-04-23T02:53:44.854Z,96793.92
2019-04-23T02:56:10.560Z,96788.19
2019-04-23T03:01:19.379Z,96774.75
2019-04-23T03:08:53.005Z,96767.29
2019-04-23T03:14:04.259Z,96758.73
2019-04-23T03:19:02.605Z,96750.20
2019-04-23T03:22:01.339Z,96743.77
2019-04-23T03:24:33.436Z,96749.53
2019-04-23T03:27:18.797Z,96746.71
2019-04-23T03:29:37.819Z,96739.87
2019-04-23T03:35:09.051Z,96733.98
2019-04-23T03:39:40.197Z,96730.31
2019-04-23T03:41:59.685Z,96725.82
2019-04-23T03:44:37.728Z,96725.03
2019-04-23T03:47:04.150Z,96726.45
2019-04-23T03:52:13.635Z,96731.31
2019-04-23T04:07:18.548Z,96736.47
2019-04-23T04:09:47.725Z,96732.76
2019-04-23T04:12:25.067Z,96734.67
2019-04-23T04:17:26.806Z,96737.42
2019-04-23T04:19:49.793Z,96739.84
2019-04-23T04:22:32.997Z,96747.48
2019-04-23T04:27:34.005Z,96747.26
2019-04-23T04:30:01.609Z,96749.34
2019-04-23T04:32:17.420Z,96745.70
2019-04-23T04:37:40.395Z,96744.70
2019-04-23T04:40:07.156Z,96750.33
2019-04-23T04:42:30.806Z,96738.19
2019-04-23T04:47:36.819Z,96727.73
2019-04-23T04:49:59.561Z,96736.41
2019-04-23T04:55:03.206Z,96734.82
2019-04-23T05:00:13.265Z,96738.09
2019-04-23T05:02:53.055Z,96736.93
2019-04-23T05:05:29.762Z,96731.02
2019-04-23T05:07:39.839Z,96728.20
2019-04-23T05:10:21.843Z,96728.61
2019-04-23T05:12:36.240Z,96733.10
2019-04-23T05:15:23.403Z,96730.39
2019-04-23T05:17:59.974Z,96730.22
2019-04-23T05:20:28.904Z,96726.55
2019-04-23T05:25:25.556Z,96723.91
2019-04-23T05:30:33.175Z,96723.41
2019-04-23T05:33:09.658Z,96721.77
2019-04-23T05:35:59.203Z,96721.47
2019-04-23T05:43:08.234Z,96710.33
2019-04-23T05:45:49.557Z,96709.19
2019-04-23T05:51:10.987Z,96712.03
2019-04-23T05:53:39.763Z,96713.89
2019-04-23T05:56:17.155Z,96711.00
2019-04-23T06:01:42.006Z,96704.05
2019-04-23T06:04:09.317Z,96704.95
2019-04-23T06:08:59.731Z,96700.80
2019-04-23T06:11:37.042Z,96700.22
2019-04-23T06:14:06.385Z,96704.52
2019-04-23T06:16:36.077Z,96695.86
2019-04-23T06:19:11.170Z,96704.09
2019-04-23T06:24:15.109Z,96702.88
2019-04-23T06:26:39.805Z,96701.80
2019-04-23T06:29:16.238Z,96696.11
2019-04-23T06:34:12.417Z,96695.18
2019-04-23T06:36:38.488Z,96690.05
2019-04-23T06:39:10.262Z,96693.92
2019-04-23T06:41:44.522Z,96690.09
2019-04-23T06:49:23.661Z,96691.69
2019-04-23T06:52:06.757Z,96696.55
2019-04-23T06:54:27.689Z,96704.42
2019-04-23T06:59:24.475Z,96700.09
2019-04-23T07:04:38.172Z,96702.56
2019-04-23T07:07:25.600Z,96700.42
2019-04-23T07:09:26.995Z,96690.47
2019-04-23T07:12:07.217Z,96690.27
2019-04-23T07:14:44.195Z,96679.73
2019-04-23T07:17:23.272Z,96688.56
2019-04-23T07:22:14.711Z,96687.03
2019-04-23T07:24:45.783Z,96687.23
2019-04-23T07:27:14.856Z,96684.97
2019-04-23T07:29:40.471Z,96687.70
2019-04-23T07:32:13.105Z,96688.76
2019-04-23T07:34:50.964Z,96691.03
2019-04-23T07:37:32.093Z,96683.41
2019-04-23T07:40:09.623Z,96685.17
2019-04-23T07:45:19.335Z,96677.06
2019-04-23T07:48:11.231Z,96673.61
2019-04-23T07:50:39.201Z,96672.83
2019-04-23T07:53:13.205Z,96682.80
2019-04-23T08:05:55.510Z,96691.82
2019-04-23T08:08:14.218Z,96682.30
2019-04-23T08:11:23.610Z,96689.53
2019-04-23T08:16:10.727Z,96682.10
2019-04-23T08:18:36.271Z,96684.75
2019-04-23T08:21:06.082Z,96676.84
2019-04-23T08:23:55.269Z,96684.20
2019-04-23T08:29:12.522Z,96685.33
2019-04-23T08:31:43.433Z,96676.27
2019-04-23T08:34:23.884Z,96683.14
2019-04-23T08:36:48.639Z,96675.73
2019-04-23T08:39:14.022Z,96682.10
2019-04-23T08:41:57.810Z,96689.59
2019-04-23T08:44:21.462Z,96678.01
2019-04-23T08:47:03.643Z,96680.69
2019-04-23T08:49:29.358Z,96682.94
2019-04-23T08:52:00.862Z,96681.12
2019-04-23T08:54:45.014Z,96677.94
2019-04-23T08:57:04.021Z,96681.55
2019-04-23T09:02:18.880Z,96669.30
2019-04-23T09:04:45.576Z,96671.12
2019-04-23T09:07:12.846Z,96672.03
2019-04-23T09:12:12.311Z,96666.04
2019-04-23T09:14:42.207Z,96662.66
2019-04-23T09:17:10.672Z,96668.32
2019-04-23T09:19:56.301Z,96663.88
2019-04-23T09:22:28.226Z,96666.67
2019-04-23T09:27:23.375Z,96661.58
2019-04-23T09:29:58.085Z,96671.89
2019-04-23T09:37:37.294Z,96666.14
2019-04-23T09:40:09.259Z,96672.95
2019-04-23T09:43:00.558Z,96669.22
2019-04-23T09:45:28.071Z,96661.48
2019-04-23T09:50:36.650Z,96663.90
2019-04-23T09:53:09.624Z,96664.25
2019-04-23T09:58:07.943Z,96660.98
2019-04-23T10:03:01.609Z,96658.07
2019-04-23T10:05:28.805Z,96659.62
2019-04-23T10:07:58.449Z,96659.95
2019-04-23T10:10:20.572Z,96658.11
2019-04-23T10:12:50.329Z,96660.11
2019-04-23T10:15:25.084Z,96660.49
2019-04-23T10:17:52.110Z,96655.43
2019-04-23T10:20:22.518Z,96656.63
2019-04-23T10:22:52.609Z,96656.77
2019-04-23T10:25:22.831Z,96651.83
2019-04-23T10:27:58.537Z,96650.98
2019-04-23T10:30:23.861Z,96655.70
2019-04-23T10:32:55.724Z,96643.95
2019-04-23T10:35:35.040Z,96656.58
2019-04-23T10:38:02.718Z,96655.63
2019-04-23T10:40:33.755Z,96651.58
2019-04-23T10:43:00.057Z,96652.74
2019-04-23T10:45:47.935Z,96651.17
2019-04-23T10:49:05.668Z,96651.91
2019-04-23T10:51:26.025Z,96648.48
2019-04-23T10:53:56.941Z,96647.96
2019-04-23T10:56:27.247Z,96651.02
2019-04-23T10:58:54.458Z,96646.28
2019-04-23T11:01:27.994Z,96642.69
2019-04-23T11:04:10.252Z,96647.59
2019-04-23T11:06:33.633Z,96644.95
2019-04-23T11:09:07.878Z,96650.22
2019-04-23T11:11:40.736Z,96646.17
2019-04-23T11:14:13.191Z,96640.16
2019-04-23T11:16:58.171Z,96641.98
2019-04-23T11:19:32.341Z,96640.41
2019-04-23T11:21:46.472Z,96641.38
2019-04-23T11:24:20.613Z,96638.63
2019-04-23T11:26:48.046Z,96643.02
2019-04-23T11:29:19.655Z,96639.16
2019-04-23T11:31:58.198Z,96640.96
2019-04-23T11:34:34.619Z,96641.70
2019-04-23T11:36:55.368Z,96644.89
2019-04-23T11:39:27.322Z,96651.81
2019-04-23T11:44:28.841Z,96652.86
2019-04-23T11:52:03.216Z,96653.95
2019-04-23T11:54:23.670Z,96664.55
2019-04-23T11:57:24.728Z,96662.37
2019-04-23T12:02:23.344Z,96670.97
2019-04-23T12:08:11.610Z,96671.67
2019-04-23T12:12:54.131Z,96673.84
2019-04-23T12:15:32.369Z,96674.56
2019-04-23T12:17:59.330Z,96677.73
2019-04-23T12:23:19.357Z,96678.59
2019-04-23T12:25:36.719Z,96680.13
2019-04-23T12:28:08.536Z,96675.81
2019-04-23T12:33:11.100Z,96680.27
2019-04-23T12:35:40.430Z,96679.53
2019-04-23T12:38:22.016Z,96682.79
2019-04-23T12:40:49.249Z,96676.21
2019-04-23T12:43:14.546Z,96686.92
2019-04-23T12:45:57.487Z,96684.44
2019-04-23T12:55:50.528Z,96684.98
2019-04-23T12:58:24.842Z,96683.61
2019-04-23T13:01:02.168Z,96680.06
2019-04-23T13:03:29.937Z,96680.20
2019-04-23T13:05:50.512Z,96669.79
2019-04-23T13:10:57.271Z,96663.30
2019-04-23T13:13:39.714Z,96661.13
2019-04-23T13:16:28.067Z,96664.25
2019-04-23T13:18:38.104Z,96657.34
2019-04-23T13:21:17.303Z,96656.43
2019-04-23T13:26:05.693Z,96658.78
2019-04-23T13:29:01.067Z,96653.47
2019-04-23T13:33:58.432Z,96653.77
2019-04-23T13:39:02.322Z,96645.02
2019-04-23T13:41:23.153Z,96642.53
2019-04-23T13:44:06.420Z,96645.59
2019-04-23T13:46:22.841Z,96645.05
2019-04-23T13:48:58.929Z,96642.98
2019-04-23T13:51:27.369Z,96640.66
2019-04-23T13:54:24.153Z,96638.04
2019-04-23T13:56:46.560Z,96636.53
2019-04-23T13:59:06.331Z,96632.51
2019-04-23T14:01:32.307Z,96642.14
2019-04-23T14:04:16.180Z,96640.85
2019-04-23T14:06:43.406Z,96644.94
2019-04-23T14:09:19.942Z,96633.05
2019-04-23T14:11:45.215Z,96629.08
2019-04-23T14:14:36.231Z,96626.16
2019-04-23T14:17:00.232Z,96626.95
2019-04-23T14:19:26.156Z,96625.13
2019-04-23T14:22:13.620Z,96620.97
2019-04-23T14:24:38.116Z,96624.20
2019-04-23T14:27:08.457Z,96631.36
2019-04-23T14:29:39.017Z,96622.91
2019-04-23T14:32:10.387Z,96633.23
2019-04-23T14:34:34.743Z,96622.67
2019-04-23T14:37:16.833Z,96629.69
2019-04-23T14:39:40.483Z,96629.33
2019-04-23T14:42:20.420Z,96628.39
2019-04-23T14:44:41.382Z,96631.70
2019-04-23T14:47:27.857Z,96626.41
2019-04-23T14:50:18.562Z,96623.84
2019-04-23T14:52:50.643Z,96630.61
2019-04-23T14:55:38.019Z,96629.03
2019-04-23T14:57:35.041Z,96627.91
2019-04-23T15:00:01.929Z,96623.89
2019-04-23T15:02:39.271Z,96627.78
2019-04-23T15:05:09.708Z,96627.14
2019-04-23T15:07:37.948Z,96628.67
2019-04-23T15:10:10.557Z,96623.11
2019-04-23T15:15:14.352Z,96627.51
2019-04-23T15:20:09.056Z,96625.17
2019-04-23T15:22:50.994Z,96622.83
2019-04-23T15:30:03.695Z,96620.42
2019-04-23T15:32:56.645Z,96619.16
2019-04-23T15:38:14.275Z,96615.91
2019-04-23T15:42:58.045Z,96614.49
2019-04-23T15:45:24.291Z,96615.91
2019-04-23T15:47:56.486Z,96615.70
2019-04-23T15:50:43.322Z,96620.51
2019-04-23T15:52:58.830Z,96620.30
2019-04-23T15:55:43.594Z,96617.33
2019-04-23T15:58:09.734Z,96612.73
2019-04-23T16:00:24.948Z,96613.09
2019-04-23T16:02:32.981Z,96613.29
2019-04-23T16:05:03.757Z,96614.80
2019-04-23T16:07:53.310Z,96612.67
2019-04-23T16:10:43.689Z,96614.80
2019-04-23T16:13:29.359Z,96615.73
2019-04-23T16:18:22.067Z,96611.95
2019-04-23T16:20:50.330Z,96607.98
2019-04-23T16:23:17.818Z,96603.80
2019-04-23T16:25:44.326Z,96609.02
2019-04-23T16:28:18.889Z,96604.73
2019-04-23T16:33:18.675Z,96605.23
2019-04-23T16:36:05.910Z,96601.63
2019-04-23T16:38:47.565Z,96601.78
2019-04-23T16:41:07.893Z,96608.89
2019-04-23T16:43:44.613Z,96605.70
2019-04-23T16:46:09.762Z,96604.08
2019-04-23T16:48:47.860Z,96605.42
2019-04-23T16:51:16.463Z,96604.41
2019-04-23T16:53:29.714Z,96601.73
2019-04-23T16:56:16.654Z,96604.91
2019-04-23T16:58:44.164Z,96608.11
2019-04-23T17:01:22.875Z,96602.59
2019-04-23T17:13:50.991Z,96606.64
2019-04-23T17:16:23.495Z,96613.39
2019-04-23T17:18:54.988Z,96606.98
2019-04-23T17:21:18.076Z,96600.70
2019-04-23T17:24:14.545Z,96606.00
2019-04-23T17:26:26.167Z,96613.46
2019-04-23T17:29:00.090Z,96607.56
2019-04-23T17:34:12.117Z,96602.48
2019-04-23T17:39:18.263Z,96603.16
2019-04-23T17:42:27.576Z,96607.70
2019-04-23T17:45:02.511Z,96617.33
2019-04-23T17:47:21.874Z,96611.13
2019-04-23T17:50:03.552Z,96619.19
2019-04-23T17:52:21.902Z,96615.69
2019-04-23T17:54:56.678Z,96622.97
2019-04-23T17:57:26.119Z,96621.52
2019-04-23T18:00:09.838Z,96624.22
2019-04-23T18:05:04.568Z,96621.67
2019-04-23T18:07:43.896Z,96622.07
2019-04-23T18:10:11.637Z,96626.58
2019-04-23T18:12:39.090Z,96624.63
2019-04-23T18:15:02.865Z,96634.84
2019-04-23T18:17:55.544Z,96635.45
2019-04-23T18:20:10.828Z,96636.19
2019-04-23T18:22:47.153Z,96635.31
2019-04-23T18:25:25.728Z,96635.93
2019-04-23T18:27:54.391Z,96634.57
2019-04-23T18:30:27.222Z,96649.14
2019-04-23T18:35:34.155Z,96649.38
2019-04-23T18:40:58.913Z,96660.77
2019-04-23T18:43:30.120Z,96667.55
2019-04-23T18:56:11.351Z,96683.70
2019-04-23T18:58:52.205Z,96689.52
2019-04-23T19:01:29.756Z,96692.52
2019-04-23T19:06:30.374Z,96694.17
2019-04-23T19:09:09.973Z,96702.42
2019-04-23T19:12:09.253Z,96706.09
2019-04-23T19:14:30.550Z,96707.81
2019-04-23T19:17:24.399Z,96710.09
2019-04-23T19:24:28.648Z,96707.97
2019-04-23T19:29:39.617Z,96719.37
2019-04-23T19:31:58.294Z,96721.16
2019-04-23T19:34:35.312Z,96710.17
2019-04-23T19:37:15.489Z,96711.84
2019-04-23T19:44:44.083Z,96718.83
2019-04-23T19:49:48.472Z,96709.81
2019-04-23T19:52:38.562Z,96716.00
2019-04-23T19:57:15.219Z,96721.71
2019-04-23T19:59:59.534Z,96716.38
2019-04-23T20:02:33.839Z,96715.23
2019-04-23T20:07:25.436Z,96720.44
2019-04-23T20:09:51.721Z,96721.17
2019-04-23T20:12:25.440Z,96730.02
2019-04-23T20:14:52.071Z,96726.81
2019-04-23T20:22:33.882Z,96719.93
2019-04-23T20:25:18.190Z,96723.67
2019-04-23T20:27:26.401Z,96732.55
2019-04-23T20:30:23.044Z,96733.94
2019-04-23T20:35:35.239Z,96730.84
2019-04-23T20:40:23.814Z,96731.37
2019-04-23T20:42:46.970Z,96735.16
2019-04-23T20:45:43.802Z,96735.67
2019-04-23T20:47:52.903Z,96730.58
2019-04-23T20:50:16.217Z,96730.79
2019-04-23T20:52:49.937Z,96729.06
2019-04-23T20:55:25.939Z,96731.50
2019-04-23T20:58:03.666Z,96731.71
2019-04-23T21:00:56.365Z,96732.48
2019-04-23T21:03:31.123Z,96733.81
2019-04-23T21:05:41.921Z,96730.11
2019-04-23T21:08:30.075Z,96731.38
2019-04-23T21:10:58.321Z,96734.55
2019-04-23T21:15:52.765Z,96733.33
2019-04-23T21:18:32.673Z,96739.14
2019-04-23T21:20:59.459Z,96738.33
2019-04-23T21:23:28.757Z,96746.49
2019-04-23T21:26:02.203Z,96745.56
2019-04-23T21:28:37.283Z,96742.83
2019-04-23T21:31:19.707Z,96746.05
2019-04-23T21:33:43.475Z,96749.58
2019-04-23T21:42:04.858Z,96761.35
2019-04-23T21:46:58.772Z,96770.89
2019-04-23T21:51:57.398Z,96763.85
2019-04-23T21:54:29.431Z,96766.04
2019-04-23T21:56:53.433Z,96766.50
2019-04-23T21:59:30.416Z,96766.33
2019-04-23T22:01:58.804Z,96771.98
2019-04-23T22:06:59.058Z,96776.88
2019-04-23T22:09:46.344Z,96772.42
2019-04-23T22:12:09.052Z,96776.20
2019-04-23T22:14:50.823Z,96776.28
2019-04-23T22:19:44.971Z,96768.38
2019-04-23T22:22:10.864Z,96775.27
2019-04-23T22:24:48.540Z,96774.98
2019-04-23T22:27:16.748Z,96776.31
2019-04-23T22:29:43.559Z,96774.23
2019-04-23T22:32:20.390Z,96778.03
2019-04-23T22:34:46.898Z,96777.84
2019-04-23T22:37:23.629Z,96778.50
2019-04-23T22:39:54.122Z,96774.98
2019-04-23T22:42:41.114Z,96773.92
2019-04-23T22:47:33.684Z,96767.19
2019-04-23T22:50:11.188Z,96772.09
2019-04-23T22:52:48.571Z,96767.00
2019-04-23T22:55:07.731Z,96769.27
2019-04-23T23:00:14.718Z,96770.61
2019-04-23T23:03:01.250Z,96774.05
2019-04-23T23:05:29.412Z,96775.50
2019-04-23T23:08:04.472Z,96772.41
2019-04-23T23:10:20.150Z,96778.47
2019-04-23T23:15:26.512Z,96778.53
2019-04-23T23:23:05.678Z,96781.61
2019-04-23T23:28:06.256Z,96778.05
2019-04-23T23:30:42.542Z,96785.23
2019-04-23T23:33:05.628Z,96778.55
2019-04-23T23:35:34.390Z,96781.09
2019-04-23T23:38:08.366Z,96778.78
2019-04-23T23:40:35.768Z,96777.87
2019-04-23T23:45:45.170Z,96778.38
2019-04-23T23:48:13.039Z,96782.25
2019-04-23T23:55:51.354Z,96788.17
2019-04-23T23:58:25.304Z,96787.88
